sensor_id;sensor_type;location;lat;lon;timestamp;P1;durP1;ratioP1;P2;durP2;ratioP2
38513;SDS011;24282;48.400;10.808;2023-04-19T00:01:48;10.23;;;9.23;;
38513;SDS011;24282;48.400;10.808;2023-04-19T00:04:13;11.87;;;9.47;;
38513;SDS011;24282;48.400;10.808;2023-04-19T00:06:39;10.90;;;9.37;;
38513;SDS011;24282;48.400;10.808;2023-04-19T00:09:06;11.57;;;10.10;;
38513;SDS011;24282;48.400;10.808;2023-04-19T00:11:32;12.33;;;10.20;;
38513;SDS011;24282;48.400;10.808;2023-04-19T00:13:58;11.00;;;9.63;;
38513;SDS011;24282;48.400;10.808;2023-04-19T00:16:24;10.53;;;9.10;;
38513;SDS011;24282;48.400;10.808;2023-04-19T00:18:50;11.63;;;9.50;;
38513;SDS011;24282;48.400;10.808;2023-04-19T00:21:16;10.90;;;9.10;;
38513;SDS011;24282;48.400;10.808;2023-04-19T00:23:41;12.03;;;9.93;;
38513;SDS011;24282;48.400;10.808;2023-04-19T00:26:07;10.63;;;9.53;;
38513;SDS011;24282;48.400;10.808;2023-04-19T00:28:35;11.90;;;10.07;;
38513;SDS011;24282;48.400;10.808;2023-04-19T00:31:01;12.40;;;10.00;;
38513;SDS011;24282;48.400;10.808;2023-04-19T00:33:27;12.73;;;10.70;;
38513;SDS011;24282;48.400;10.808;2023-04-19T00:35:55;13.33;;;11.00;;
38513;SDS011;24282;48.400;10.808;2023-04-19T00:38:21;11.80;;;10.57;;
38513;SDS011;24282;48.400;10.808;2023-04-19T00:40:47;12.67;;;10.03;;
38513;SDS011;24282;48.400;10.808;2023-04-19T00:43:16;13.47;;;11.50;;
38513;SDS011;24282;48.400;10.808;2023-04-19T00:45:42;15.03;;;11.00;;
38513;SDS011;24282;48.400;10.808;2023-04-19T00:48:08;11.07;;;9.63;;
38513;SDS011;24282;48.400;10.808;2023-04-19T00:50:34;14.30;;;11.00;;
38513;SDS011;24282;48.400;10.808;2023-04-19T00:53:00;11.17;;;9.97;;
38513;SDS011;24282;48.400;10.808;2023-04-19T00:55:37;13.30;;;11.70;;
38513;SDS011;24282;48.400;10.808;2023-04-19T00:58:04;12.10;;;10.60;;
38513;SDS011;24282;48.400;10.808;2023-04-19T01:00:31;15.13;;;11.77;;
38513;SDS011;24282;48.400;10.808;2023-04-19T01:02:57;14.83;;;12.30;;
38513;SDS011;24282;48.400;10.808;2023-04-19T01:05:22;13.53;;;12.23;;
38513;SDS011;24282;48.400;10.808;2023-04-19T01:07:48;13.53;;;11.83;;
38513;SDS011;24282;48.400;10.808;2023-04-19T01:10:14;12.50;;;11.20;;
38513;SDS011;24282;48.400;10.808;2023-04-19T01:12:40;14.00;;;12.60;;
38513;SDS011;24282;48.400;10.808;2023-04-19T01:15:06;14.17;;;12.10;;
38513;SDS011;24282;48.400;10.808;2023-04-19T01:17:32;14.40;;;12.57;;
38513;SDS011;24282;48.400;10.808;2023-04-19T01:19:59;15.57;;;12.40;;
38513;SDS011;24282;48.400;10.808;2023-04-19T01:22:26;13.83;;;12.10;;
38513;SDS011;24282;48.400;10.808;2023-04-19T01:24:52;13.50;;;12.10;;
38513;SDS011;24282;48.400;10.808;2023-04-19T01:27:18;15.97;;;12.87;;
38513;SDS011;24282;48.400;10.808;2023-04-19T01:29:44;15.37;;;13.17;;
38513;SDS011;24282;48.400;10.808;2023-04-19T01:32:10;14.47;;;12.97;;
38513;SDS011;24282;48.400;10.808;2023-04-19T01:34:37;13.13;;;11.83;;
38513;SDS011;24282;48.400;10.808;2023-04-19T01:37:03;15.80;;;13.63;;
38513;SDS011;24282;48.400;10.808;2023-04-19T01:39:28;16.03;;;12.90;;
38513;SDS011;24282;48.400;10.808;2023-04-19T01:41:55;14.70;;;13.17;;
38513;SDS011;24282;48.400;10.808;2023-04-19T01:44:20;14.83;;;12.87;;
38513;SDS011;24282;48.400;10.808;2023-04-19T01:46:46;16.00;;;14.40;;
38513;SDS011;24282;48.400;10.808;2023-04-19T01:49:12;15.17;;;13.67;;
38513;SDS011;24282;48.400;10.808;2023-04-19T01:51:41;14.30;;;12.80;;
38513;SDS011;24282;48.400;10.808;2023-04-19T01:54:06;15.50;;;13.90;;
38513;SDS011;24282;48.400;10.808;2023-04-19T01:56:32;15.00;;;13.17;;
38513;SDS011;24282;48.400;10.808;2023-04-19T01:58:58;16.50;;;14.13;;
38513;SDS011;24282;48.400;10.808;2023-04-19T02:01:23;15.90;;;14.13;;
38513;SDS011;24282;48.400;10.808;2023-04-19T02:03:50;16.20;;;14.50;;
38513;SDS011;24282;48.400;10.808;2023-04-19T02:06:15;14.67;;;13.17;;
38513;SDS011;24282;48.400;10.808;2023-04-19T02:08:41;17.13;;;15.23;;
38513;SDS011;24282;48.400;10.808;2023-04-19T02:11:07;17.03;;;14.77;;
38513;SDS011;24282;48.400;10.808;2023-04-19T02:13:34;15.97;;;14.37;;
38513;SDS011;24282;48.400;10.808;2023-04-19T02:16:01;14.83;;;13.33;;
38513;SDS011;24282;48.400;10.808;2023-04-19T02:18:27;15.87;;;14.00;;
38513;SDS011;24282;48.400;10.808;2023-04-19T02:20:57;15.43;;;13.83;;
38513;SDS011;24282;48.400;10.808;2023-04-19T02:23:23;14.60;;;13.00;;
38513;SDS011;24282;48.400;10.808;2023-04-19T02:25:49;15.03;;;13.53;;
38513;SDS011;24282;48.400;10.808;2023-04-19T02:28:15;15.40;;;13.77;;
38513;SDS011;24282;48.400;10.808;2023-04-19T02:30:41;17.80;;;14.10;;
38513;SDS011;24282;48.400;10.808;2023-04-19T02:33:07;15.43;;;13.53;;
38513;SDS011;24282;48.400;10.808;2023-04-19T02:35:32;16.33;;;14.63;;
38513;SDS011;24282;48.400;10.808;2023-04-19T02:37:59;16.07;;;14.00;;
38513;SDS011;24282;48.400;10.808;2023-04-19T02:40:28;16.53;;;14.83;;
38513;SDS011;24282;48.400;10.808;2023-04-19T02:42:57;16.60;;;14.90;;
38513;SDS011;24282;48.400;10.808;2023-04-19T02:45:23;15.77;;;14.17;;
38513;SDS011;24282;48.400;10.808;2023-04-19T02:47:48;15.20;;;13.60;;
38513;SDS011;24282;48.400;10.808;2023-04-19T02:50:15;15.27;;;13.37;;
38513;SDS011;24282;48.400;10.808;2023-04-19T02:52:46;16.97;;;14.00;;
38513;SDS011;24282;48.400;10.808;2023-04-19T02:55:12;15.97;;;13.67;;
38513;SDS011;24282;48.400;10.808;2023-04-19T02:57:37;16.27;;;13.03;;
38513;SDS011;24282;48.400;10.808;2023-04-19T03:00:06;15.60;;;13.50;;
38513;SDS011;24282;48.400;10.808;2023-04-19T03:02:35;16.53;;;14.73;;
38513;SDS011;24282;48.400;10.808;2023-04-19T03:05:01;15.50;;;13.90;;
38513;SDS011;24282;48.400;10.808;2023-04-19T03:07:29;16.00;;;14.30;;
38513;SDS011;24282;48.400;10.808;2023-04-19T03:09:54;15.87;;;14.17;;
38513;SDS011;24282;48.400;10.808;2023-04-19T03:12:20;17.13;;;15.27;;
38513;SDS011;24282;48.400;10.808;2023-04-19T03:14:46;16.53;;;14.57;;
38513;SDS011;24282;48.400;10.808;2023-04-19T03:17:12;16.97;;;14.80;;
38513;SDS011;24282;48.400;10.808;2023-04-19T03:19:37;14.87;;;13.33;;
38513;SDS011;24282;48.400;10.808;2023-04-19T03:22:04;17.27;;;14.37;;
38513;SDS011;24282;48.400;10.808;2023-04-19T03:24:31;17.13;;;13.57;;
38513;SDS011;24282;48.400;10.808;2023-04-19T03:27:05;18.23;;;14.30;;
38513;SDS011;24282;48.400;10.808;2023-04-19T03:29:31;16.93;;;14.80;;
38513;SDS011;24282;48.400;10.808;2023-04-19T03:32:00;15.97;;;14.00;;
38513;SDS011;24282;48.400;10.808;2023-04-19T03:34:27;17.27;;;14.87;;
38513;SDS011;24282;48.400;10.808;2023-04-19T03:36:53;16.47;;;14.77;;
38513;SDS011;24282;48.400;10.808;2023-04-19T03:39:19;17.03;;;15.03;;
38513;SDS011;24282;48.400;10.808;2023-04-19T03:41:49;18.53;;;15.40;;
38513;SDS011;24282;48.400;10.808;2023-04-19T03:44:25;16.57;;;14.70;;
38513;SDS011;24282;48.400;10.808;2023-04-19T03:46:52;17.40;;;14.43;;
38513;SDS011;24282;48.400;10.808;2023-04-19T03:49:22;18.40;;;14.40;;
38513;SDS011;24282;48.400;10.808;2023-04-19T03:51:59;16.80;;;14.60;;
38513;SDS011;24282;48.400;10.808;2023-04-19T03:54:26;16.30;;;14.17;;
38513;SDS011;24282;48.400;10.808;2023-04-19T03:56:52;17.60;;;15.07;;
38513;SDS011;24282;48.400;10.808;2023-04-19T03:59:17;15.93;;;14.00;;
38513;SDS011;24282;48.400;10.808;2023-04-19T04:01:43;16.27;;;14.57;;
38513;SDS011;24282;48.400;10.808;2023-04-19T04:04:10;17.57;;;15.67;;
38513;SDS011;24282;48.400;10.808;2023-04-19T04:06:37;15.87;;;14.17;;
38513;SDS011;24282;48.400;10.808;2023-04-19T04:09:03;17.23;;;14.20;;
38513;SDS011;24282;48.400;10.808;2023-04-19T04:11:29;15.90;;;13.30;;
38513;SDS011;24282;48.400;10.808;2023-04-19T04:13:56;15.67;;;13.93;;
38513;SDS011;24282;48.400;10.808;2023-04-19T04:16:25;14.90;;;13.30;;
38513;SDS011;24282;48.400;10.808;2023-04-19T04:18:52;15.90;;;14.07;;
38513;SDS011;24282;48.400;10.808;2023-04-19T04:21:19;17.20;;;14.73;;
38513;SDS011;24282;48.400;10.808;2023-04-19T04:23:46;18.13;;;14.27;;
38513;SDS011;24282;48.400;10.808;2023-04-19T04:26:22;16.83;;;13.13;;
38513;SDS011;24282;48.400;10.808;2023-04-19T04:29:09;15.73;;;13.53;;
38513;SDS011;24282;48.400;10.808;2023-04-19T04:31:38;16.50;;;12.83;;
38513;SDS011;24282;48.400;10.808;2023-04-19T04:34:03;17.10;;;14.57;;
38513;SDS011;24282;48.400;10.808;2023-04-19T04:36:33;18.17;;;15.03;;
38513;SDS011;24282;48.400;10.808;2023-04-19T04:39:02;17.40;;;14.30;;
38513;SDS011;24282;48.400;10.808;2023-04-19T04:41:29;16.57;;;13.87;;
38513;SDS011;24282;48.400;10.808;2023-04-19T04:43:56;16.33;;;14.30;;
38513;SDS011;24282;48.400;10.808;2023-04-19T04:46:22;17.63;;;14.50;;
38513;SDS011;24282;48.400;10.808;2023-04-19T04:48:50;16.43;;;14.63;;
38513;SDS011;24282;48.400;10.808;2023-04-19T04:51:18;17.63;;;14.50;;
38513;SDS011;24282;48.400;10.808;2023-04-19T04:53:46;17.37;;;15.40;;
38513;SDS011;24282;48.400;10.808;2023-04-19T04:56:12;17.53;;;14.83;;
38513;SDS011;24282;48.400;10.808;2023-04-19T04:58:39;18.60;;;14.00;;
38513;SDS011;24282;48.400;10.808;2023-04-19T05:01:07;18.57;;;15.13;;
38513;SDS011;24282;48.400;10.808;2023-04-19T05:03:37;19.40;;;14.87;;
38513;SDS011;24282;48.400;10.808;2023-04-19T05:06:06;17.60;;;14.47;;
38513;SDS011;24282;48.400;10.808;2023-04-19T05:08:33;16.57;;;14.77;;
38513;SDS011;24282;48.400;10.808;2023-04-19T05:11:25;18.93;;;15.60;;
38513;SDS011;24282;48.400;10.808;2023-04-19T05:13:52;17.30;;;14.53;;
38513;SDS011;24282;48.400;10.808;2023-04-19T05:16:17;18.60;;;13.67;;
38513;SDS011;24282;48.400;10.808;2023-04-19T05:18:45;16.00;;;14.27;;
38513;SDS011;24282;48.400;10.808;2023-04-19T05:21:11;17.97;;;15.30;;
38513;SDS011;24282;48.400;10.808;2023-04-19T05:23:38;16.13;;;14.27;;
38513;SDS011;24282;48.400;10.808;2023-04-19T05:26:04;18.57;;;15.47;;
38513;SDS011;24282;48.400;10.808;2023-04-19T05:28:30;19.40;;;15.00;;
38513;SDS011;24282;48.400;10.808;2023-04-19T05:31:18;17.70;;;15.00;;
38513;SDS011;24282;48.400;10.808;2023-04-19T05:33:58;21.03;;;15.43;;
38513;SDS011;24282;48.400;10.808;2023-04-19T05:36:24;19.47;;;15.70;;
38513;SDS011;24282;48.400;10.808;2023-04-19T05:38:51;19.40;;;15.63;;
38513;SDS011;24282;48.400;10.808;2023-04-19T05:41:16;17.37;;;14.20;;
38513;SDS011;24282;48.400;10.808;2023-04-19T05:43:44;21.80;;;14.87;;
38513;SDS011;24282;48.400;10.808;2023-04-19T05:46:12;19.53;;;13.93;;
38513;SDS011;24282;48.400;10.808;2023-04-19T05:48:37;17.40;;;14.57;;
38513;SDS011;24282;48.400;10.808;2023-04-19T05:51:23;16.77;;;13.33;;
38513;SDS011;24282;48.400;10.808;2023-04-19T05:54:09;18.57;;;13.37;;
38513;SDS011;24282;48.400;10.808;2023-04-19T05:56:38;18.80;;;14.67;;
38513;SDS011;24282;48.400;10.808;2023-04-19T05:59:04;16.70;;;13.97;;
38513;SDS011;24282;48.400;10.808;2023-04-19T06:01:31;20.47;;;15.13;;
38513;SDS011;24282;48.400;10.808;2023-04-19T06:03:57;16.67;;;14.03;;
38513;SDS011;24282;48.400;10.808;2023-04-19T06:06:23;19.13;;;14.60;;
38513;SDS011;24282;48.400;10.808;2023-04-19T06:08:49;16.93;;;14.30;;
38513;SDS011;24282;48.400;10.808;2023-04-19T06:11:15;17.20;;;14.87;;
38513;SDS011;24282;48.400;10.808;2023-04-19T06:13:41;18.13;;;13.80;;
38513;SDS011;24282;48.400;10.808;2023-04-19T06:16:09;18.33;;;14.83;;
38513;SDS011;24282;48.400;10.808;2023-04-19T06:18:35;17.30;;;13.67;;
38513;SDS011;24282;48.400;10.808;2023-04-19T06:21:01;19.47;;;15.13;;
38513;SDS011;24282;48.400;10.808;2023-04-19T06:23:26;17.70;;;13.73;;
38513;SDS011;24282;48.400;10.808;2023-04-19T06:25:52;17.53;;;13.70;;
38513;SDS011;24282;48.400;10.808;2023-04-19T06:28:18;19.13;;;14.07;;
38513;SDS011;24282;48.400;10.808;2023-04-19T06:30:44;16.30;;;13.30;;
38513;SDS011;24282;48.400;10.808;2023-04-19T06:33:10;18.37;;;14.27;;
38513;SDS011;24282;48.400;10.808;2023-04-19T06:35:35;16.47;;;13.33;;
38513;SDS011;24282;48.400;10.808;2023-04-19T06:38:01;18.20;;;13.30;;
38513;SDS011;24282;48.400;10.808;2023-04-19T06:40:27;21.83;;;13.90;;
38513;SDS011;24282;48.400;10.808;2023-04-19T06:42:53;16.00;;;12.90;;
38513;SDS011;24282;48.400;10.808;2023-04-19T06:45:19;17.07;;;13.27;;
38513;SDS011;24282;48.400;10.808;2023-04-19T06:47:45;18.40;;;13.77;;
38513;SDS011;24282;48.400;10.808;2023-04-19T06:50:11;15.83;;;13.30;;
38513;SDS011;24282;48.400;10.808;2023-04-19T06:52:37;15.90;;;13.77;;
38513;SDS011;24282;48.400;10.808;2023-04-19T06:55:04;19.13;;;13.37;;
38513;SDS011;24282;48.400;10.808;2023-04-19T06:57:31;16.80;;;13.10;;
38513;SDS011;24282;48.400;10.808;2023-04-19T06:59:56;16.87;;;12.17;;
38513;SDS011;24282;48.400;10.808;2023-04-19T07:02:23;17.40;;;13.70;;
38513;SDS011;24282;48.400;10.808;2023-04-19T07:04:49;15.57;;;12.70;;
38513;SDS011;24282;48.400;10.808;2023-04-19T07:07:15;16.30;;;13.20;;
38513;SDS011;24282;48.400;10.808;2023-04-19T07:09:41;15.53;;;12.93;;
38513;SDS011;24282;48.400;10.808;2023-04-19T07:12:07;15.97;;;12.97;;
38513;SDS011;24282;48.400;10.808;2023-04-19T07:14:33;14.50;;;11.67;;
38513;SDS011;24282;48.400;10.808;2023-04-19T07:16:58;16.70;;;13.47;;
38513;SDS011;24282;48.400;10.808;2023-04-19T07:19:24;15.37;;;12.63;;
38513;SDS011;24282;48.400;10.808;2023-04-19T07:21:52;14.67;;;11.80;;
38513;SDS011;24282;48.400;10.808;2023-04-19T07:24:17;14.97;;;12.33;;
38513;SDS011;24282;48.400;10.808;2023-04-19T07:26:43;16.77;;;12.63;;
38513;SDS011;24282;48.400;10.808;2023-04-19T07:29:09;18.33;;;13.50;;
38513;SDS011;24282;48.400;10.808;2023-04-19T07:31:35;15.60;;;13.27;;
38513;SDS011;24282;48.400;10.808;2023-04-19T07:34:01;15.07;;;12.30;;
38513;SDS011;24282;48.400;10.808;2023-04-19T07:36:26;14.47;;;11.90;;
38513;SDS011;24282;48.400;10.808;2023-04-19T07:38:52;15.47;;;12.37;;
38513;SDS011;24282;48.400;10.808;2023-04-19T07:41:18;16.00;;;12.67;;
38513;SDS011;24282;48.400;10.808;2023-04-19T07:43:43;13.97;;;11.90;;
38513;SDS011;24282;48.400;10.808;2023-04-19T07:46:12;16.90;;;12.47;;
38513;SDS011;24282;48.400;10.808;2023-04-19T07:48:40;16.17;;;13.47;;
38513;SDS011;24282;48.400;10.808;2023-04-19T07:53:34;16.27;;;12.87;;
38513;SDS011;24282;48.400;10.808;2023-04-19T07:56:00;16.43;;;12.37;;
38513;SDS011;24282;48.400;10.808;2023-04-19T07:58:26;15.87;;;12.10;;
38513;SDS011;24282;48.400;10.808;2023-04-19T08:00:51;14.37;;;11.50;;
38513;SDS011;24282;48.400;10.808;2023-04-19T08:03:17;16.27;;;11.80;;
38513;SDS011;24282;48.400;10.808;2023-04-19T08:05:43;14.47;;;11.90;;
38513;SDS011;24282;48.400;10.808;2023-04-19T08:08:08;14.37;;;11.57;;
38513;SDS011;24282;48.400;10.808;2023-04-19T08:10:34;16.47;;;13.73;;
38513;SDS011;24282;48.400;10.808;2023-04-19T08:13:00;14.00;;;11.53;;
38513;SDS011;24282;48.400;10.808;2023-04-19T08:15:25;15.13;;;11.90;;
38513;SDS011;24282;48.400;10.808;2023-04-19T08:17:51;15.43;;;12.33;;
38513;SDS011;24282;48.400;10.808;2023-04-19T08:20:17;15.63;;;12.57;;
38513;SDS011;24282;48.400;10.808;2023-04-19T08:22:43;15.80;;;11.73;;
38513;SDS011;24282;48.400;10.808;2023-04-19T08:25:09;15.33;;;12.97;;
38513;SDS011;24282;48.400;10.808;2023-04-19T08:27:35;15.77;;;12.07;;
38513;SDS011;24282;48.400;10.808;2023-04-19T08:30:01;15.40;;;11.90;;
38513;SDS011;24282;48.400;10.808;2023-04-19T08:32:27;13.40;;;10.90;;
38513;SDS011;24282;48.400;10.808;2023-04-19T08:34:53;14.73;;;11.60;;
38513;SDS011;24282;48.400;10.808;2023-04-19T08:37:19;14.67;;;11.63;;
38513;SDS011;24282;48.400;10.808;2023-04-19T08:39:45;16.37;;;11.93;;
38513;SDS011;24282;48.400;10.808;2023-04-19T08:42:11;13.60;;;11.00;;
38513;SDS011;24282;48.400;10.808;2023-04-19T08:44:36;13.43;;;10.73;;
38513;SDS011;24282;48.400;10.808;2023-04-19T08:47:04;14.80;;;11.37;;
38513;SDS011;24282;48.400;10.808;2023-04-19T08:49:30;14.73;;;12.20;;
38513;SDS011;24282;48.400;10.808;2023-04-19T08:52:00;16.87;;;12.20;;
38513;SDS011;24282;48.400;10.808;2023-04-19T08:54:29;13.40;;;11.40;;
38513;SDS011;24282;48.400;10.808;2023-04-19T08:56:59;14.77;;;11.57;;
38513;SDS011;24282;48.400;10.808;2023-04-19T08:59:26;13.87;;;11.43;;
38513;SDS011;24282;48.400;10.808;2023-04-19T09:01:54;13.70;;;11.17;;
38513;SDS011;24282;48.400;10.808;2023-04-19T09:04:23;14.83;;;11.63;;
38513;SDS011;24282;48.400;10.808;2023-04-19T09:06:49;14.57;;;10.33;;
38513;SDS011;24282;48.400;10.808;2023-04-19T09:09:22;12.83;;;10.40;;
38513;SDS011;24282;48.400;10.808;2023-04-19T09:11:49;13.70;;;9.87;;
38513;SDS011;24282;48.400;10.808;2023-04-19T09:14:16;13.70;;;11.73;;
38513;SDS011;24282;48.400;10.808;2023-04-19T09:16:43;12.13;;;9.47;;
38513;SDS011;24282;48.400;10.808;2023-04-19T09:19:09;11.53;;;8.87;;
38513;SDS011;24282;48.400;10.808;2023-04-19T09:21:36;12.90;;;10.10;;
38513;SDS011;24282;48.400;10.808;2023-04-19T09:24:03;11.87;;;10.33;;
38513;SDS011;24282;48.400;10.808;2023-04-19T09:26:29;14.20;;;11.50;;
38513;SDS011;24282;48.400;10.808;2023-04-19T09:28:59;14.87;;;11.73;;
38513;SDS011;24282;48.400;10.808;2023-04-19T09:31:27;14.97;;;11.77;;
38513;SDS011;24282;48.400;10.808;2023-04-19T09:33:54;12.43;;;9.83;;
38513;SDS011;24282;48.400;10.808;2023-04-19T09:36:29;12.63;;;10.33;;
38513;SDS011;24282;48.400;10.808;2023-04-19T09:38:57;12.37;;;10.50;;
38513;SDS011;24282;48.400;10.808;2023-04-19T09:41:24;13.20;;;10.27;;
38513;SDS011;24282;48.400;10.808;2023-04-19T09:43:50;12.27;;;9.77;;
38513;SDS011;24282;48.400;10.808;2023-04-19T09:49:11;15.27;;;11.03;;
38513;SDS011;24282;48.400;10.808;2023-04-19T09:51:54;13.23;;;10.37;;
38513;SDS011;24282;48.400;10.808;2023-04-19T09:54:22;11.80;;;9.60;;
38513;SDS011;24282;48.400;10.808;2023-04-19T09:56:49;12.30;;;10.10;;
38513;SDS011;24282;48.400;10.808;2023-04-19T09:59:16;14.57;;;10.13;;
38513;SDS011;24282;48.400;10.808;2023-04-19T10:01:44;12.37;;;9.07;;
38513;SDS011;24282;48.400;10.808;2023-04-19T10:04:12;11.70;;;10.20;;
38513;SDS011;24282;48.400;10.808;2023-04-19T10:06:48;10.93;;;8.57;;
38513;SDS011;24282;48.400;10.808;2023-04-19T10:09:17;14.77;;;10.20;;
38513;SDS011;24282;48.400;10.808;2023-04-19T10:11:53;12.10;;;9.30;;
38513;SDS011;24282;48.400;10.808;2023-04-19T10:14:20;13.73;;;10.67;;
38513;SDS011;24282;48.400;10.808;2023-04-19T10:16:48;12.30;;;10.13;;
38513;SDS011;24282;48.400;10.808;2023-04-19T10:19:16;11.87;;;10.10;;
38513;SDS011;24282;48.400;10.808;2023-04-19T10:21:43;11.13;;;8.33;;
38513;SDS011;24282;48.400;10.808;2023-04-19T10:24:11;9.43;;;8.17;;
38513;SDS011;24282;48.400;10.808;2023-04-19T10:32:20;12.20;;;9.67;;
38513;SDS011;24282;48.400;10.808;2023-04-19T10:34:48;10.07;;;8.20;;
38513;SDS011;24282;48.400;10.808;2023-04-19T10:37:20;12.47;;;9.53;;
38513;SDS011;24282;48.400;10.808;2023-04-19T10:39:48;11.73;;;9.27;;
38513;SDS011;24282;48.400;10.808;2023-04-19T10:42:14;11.23;;;9.80;;
38513;SDS011;24282;48.400;10.808;2023-04-19T10:44:40;11.20;;;10.00;;
38513;SDS011;24282;48.400;10.808;2023-04-19T10:47:05;12.63;;;9.93;;
38513;SDS011;24282;48.400;10.808;2023-04-19T10:49:31;14.07;;;10.23;;
38513;SDS011;24282;48.400;10.808;2023-04-19T10:52:25;16.50;;;11.47;;
38513;SDS011;24282;48.400;10.808;2023-04-19T10:54:56;13.77;;;12.27;;
38513;SDS011;24282;48.400;10.808;2023-04-19T10:57:22;12.37;;;11.07;;
38513;SDS011;24282;48.400;10.808;2023-04-19T11:00:16;16.80;;;13.90;;
38513;SDS011;24282;48.400;10.808;2023-04-19T11:02:49;21.20;;;16.50;;
38513;SDS011;24282;48.400;10.808;2023-04-19T11:05:15;16.00;;;13.23;;
38513;SDS011;24282;48.400;10.808;2023-04-19T11:07:41;15.93;;;12.80;;
38513;SDS011;24282;48.400;10.808;2023-04-19T11:10:07;17.57;;;12.90;;
38513;SDS011;24282;48.400;10.808;2023-04-19T11:12:33;15.27;;;12.83;;
38513;SDS011;24282;48.400;10.808;2023-04-19T11:14:59;15.90;;;12.27;;
38513;SDS011;24282;48.400;10.808;2023-04-19T11:17:27;20.07;;;14.80;;
38513;SDS011;24282;48.400;10.808;2023-04-19T11:19:56;19.10;;;14.30;;
38513;SDS011;24282;48.400;10.808;2023-04-19T11:22:36;19.43;;;14.73;;
38513;SDS011;24282;48.400;10.808;2023-04-19T11:25:04;17.87;;;13.77;;
38513;SDS011;24282;48.400;10.808;2023-04-19T11:27:38;15.93;;;12.57;;
38513;SDS011;24282;48.400;10.808;2023-04-19T11:30:09;14.43;;;12.23;;
38513;SDS011;24282;48.400;10.808;2023-04-19T11:32:36;16.20;;;13.57;;
38513;SDS011;24282;48.400;10.808;2023-04-19T11:35:06;16.17;;;13.43;;
38513;SDS011;24282;48.400;10.808;2023-04-19T11:37:33;15.10;;;12.90;;
38513;SDS011;24282;48.400;10.808;2023-04-19T11:40:02;16.17;;;13.20;;
38513;SDS011;24282;48.400;10.808;2023-04-19T11:42:30;16.53;;;13.57;;
38513;SDS011;24282;48.400;10.808;2023-04-19T11:44:56;16.57;;;13.53;;
38513;SDS011;24282;48.400;10.808;2023-04-19T11:47:24;15.93;;;12.43;;
38513;SDS011;24282;48.400;10.808;2023-04-19T11:49:50;15.40;;;12.93;;
38513;SDS011;24282;48.400;10.808;2023-04-19T11:52:19;16.07;;;13.37;;
38513;SDS011;24282;48.400;10.808;2023-04-19T11:54:47;15.90;;;13.17;;
38513;SDS011;24282;48.400;10.808;2023-04-19T11:57:12;17.90;;;13.30;;
38513;SDS011;24282;48.400;10.808;2023-04-19T11:59:38;15.03;;;12.73;;
38513;SDS011;24282;48.400;10.808;2023-04-19T12:02:24;14.80;;;12.63;;
38513;SDS011;24282;48.400;10.808;2023-04-19T12:04:50;15.10;;;12.13;;
38513;SDS011;24282;48.400;10.808;2023-04-19T12:07:16;14.33;;;12.50;;
38513;SDS011;24282;48.400;10.808;2023-04-19T12:09:41;15.60;;;12.40;;
38513;SDS011;24282;48.400;10.808;2023-04-19T12:12:07;18.17;;;14.97;;
38513;SDS011;24282;48.400;10.808;2023-04-19T12:14:33;16.10;;;13.23;;
38513;SDS011;24282;48.400;10.808;2023-04-19T12:17:06;16.60;;;13.60;;
38513;SDS011;24282;48.400;10.808;2023-04-19T12:19:43;14.87;;;12.23;;
38513;SDS011;24282;48.400;10.808;2023-04-19T12:22:14;13.90;;;11.90;;
38513;SDS011;24282;48.400;10.808;2023-04-19T12:24:41;13.37;;;11.50;;
38513;SDS011;24282;48.400;10.808;2023-04-19T12:27:07;16.77;;;13.37;;
38513;SDS011;24282;48.400;10.808;2023-04-19T12:29:34;15.07;;;12.77;;
38513;SDS011;24282;48.400;10.808;2023-04-19T12:32:00;15.87;;;12.10;;
38513;SDS011;24282;48.400;10.808;2023-04-19T12:34:26;13.13;;;10.63;;
38513;SDS011;24282;48.400;10.808;2023-04-19T12:36:52;11.47;;;9.33;;
38513;SDS011;24282;48.400;10.808;2023-04-19T12:39:18;10.57;;;8.30;;
38513;SDS011;24282;48.400;10.808;2023-04-19T12:41:44;9.17;;;7.63;;
38513;SDS011;24282;48.400;10.808;2023-04-19T12:44:13;8.67;;;7.53;;
38513;SDS011;24282;48.400;10.808;2023-04-19T12:46:39;9.83;;;7.70;;
38513;SDS011;24282;48.400;10.808;2023-04-19T12:49:04;9.80;;;8.07;;
38513;SDS011;24282;48.400;10.808;2023-04-19T12:51:30;9.77;;;6.77;;
38513;SDS011;24282;48.400;10.808;2023-04-19T12:53:56;8.87;;;7.13;;
38513;SDS011;24282;48.400;10.808;2023-04-19T12:56:22;13.57;;;8.57;;
38513;SDS011;24282;48.400;10.808;2023-04-19T12:58:48;8.20;;;6.60;;
38513;SDS011;24282;48.400;10.808;2023-04-19T13:01:14;10.27;;;6.60;;
38513;SDS011;24282;48.400;10.808;2023-04-19T13:03:40;9.17;;;7.30;;
38513;SDS011;24282;48.400;10.808;2023-04-19T13:06:05;9.47;;;7.77;;
38513;SDS011;24282;48.400;10.808;2023-04-19T13:08:32;9.87;;;7.87;;
38513;SDS011;24282;48.400;10.808;2023-04-19T13:10:57;10.43;;;7.50;;
38513;SDS011;24282;48.400;10.808;2023-04-19T13:13:27;10.37;;;8.83;;
38513;SDS011;24282;48.400;10.808;2023-04-19T13:15:53;10.27;;;8.53;;
38513;SDS011;24282;48.400;10.808;2023-04-19T13:18:19;11.17;;;9.17;;
38513;SDS011;24282;48.400;10.808;2023-04-19T13:20:46;10.63;;;9.43;;
38513;SDS011;24282;48.400;10.808;2023-04-19T13:23:14;11.50;;;9.67;;
38513;SDS011;24282;48.400;10.808;2023-04-19T13:25:39;13.60;;;10.13;;
38513;SDS011;24282;48.400;10.808;2023-04-19T13:28:05;12.13;;;10.60;;
38513;SDS011;24282;48.400;10.808;2023-04-19T13:30:31;14.27;;;10.93;;
38513;SDS011;24282;48.400;10.808;2023-04-19T13:32:56;13.23;;;11.07;;
38513;SDS011;24282;48.400;10.808;2023-04-19T13:35:22;13.30;;;11.37;;
38513;SDS011;24282;48.400;10.808;2023-04-19T13:37:48;14.43;;;12.90;;
38513;SDS011;24282;48.400;10.808;2023-04-19T13:40:15;14.73;;;12.73;;
38513;SDS011;24282;48.400;10.808;2023-04-19T13:42:41;13.20;;;11.07;;
38513;SDS011;24282;48.400;10.808;2023-04-19T13:45:06;13.07;;;11.17;;
38513;SDS011;24282;48.400;10.808;2023-04-19T13:47:33;15.17;;;12.33;;
38513;SDS011;24282;48.400;10.808;2023-04-19T13:49:59;15.73;;;12.93;;
38513;SDS011;24282;48.400;10.808;2023-04-19T13:52:25;14.00;;;11.70;;
38513;SDS011;24282;48.400;10.808;2023-04-19T13:54:50;14.97;;;10.80;;
38513;SDS011;24282;48.400;10.808;2023-04-19T13:57:16;16.93;;;11.50;;
38513;SDS011;24282;48.400;10.808;2023-04-19T13:59:42;11.73;;;10.53;;
38513;SDS011;24282;48.400;10.808;2023-04-19T14:02:08;12.93;;;11.50;;
38513;SDS011;24282;48.400;10.808;2023-04-19T14:04:33;15.10;;;12.33;;
38513;SDS011;24282;48.400;10.808;2023-04-19T14:06:59;12.97;;;11.20;;
38513;SDS011;24282;48.400;10.808;2023-04-19T14:09:25;11.90;;;10.03;;
38513;SDS011;24282;48.400;10.808;2023-04-19T14:11:50;12.87;;;10.73;;
38513;SDS011;24282;48.400;10.808;2023-04-19T14:14:16;12.27;;;10.10;;
38513;SDS011;24282;48.400;10.808;2023-04-19T14:16:42;12.70;;;10.10;;
38513;SDS011;24282;48.400;10.808;2023-04-19T14:19:08;10.20;;;9.10;;
38513;SDS011;24282;48.400;10.808;2023-04-19T14:21:34;11.23;;;8.87;;
38513;SDS011;24282;48.400;10.808;2023-04-19T14:24:00;11.17;;;8.70;;